Aviation Digital Data Service (ADDS)

Output produced by METARs form (0714 UTC 24 March 2019)
found at http://www.aviationweather.gov/metar/data/
 
TAF TXKF 240537Z 2406/2506 29015KT 9999 FEW040 SCT300 
     BECMG 2422/2424 34005KT